Queensgate, Washington
Current Conditions -  °F | °C
As of 9:31 PM on Tuesday 25 Nov 2014 (Local Time) from KPAE Reporting Station
Overcast Overcast  
Wind Chill: 50°   Ceiling: 400
Heat Index: 50°   Visibility: 9mi
Dew Point: 49°   Wind: 10mph
Humidity: 96%   Direction: 200°SSW
Pressure: 30.12"   Gusts: NA
Location:  47.7527°N, 122.215°W
Report Text: KPAE 260531Z AUTO 20009KT 9SM OVC004 10/09 A3012 RMK AO2 T01000094
Loading
Personal Weather Stations






























Interactive Weather Map New forecast layout! Learn more

10-Day Weather Forecast

Advertisements
Track Severe Weather on mobile